Time;durP1;ratioP1;P1;durP2;ratioP2;P2;SDS_P1;SDS_P2;PMS_P1;PMS_P2;Temp;Humidity;BMP_temperature;BMP_pressure;BME280_temperature;BME280_humidity;BME280_pressure;Samples;Min_cycle;Max_cycle;Signal;HPM_P1;HPM_P2
2022/08/31 00:05:22;;;;;;;39.63;33.27;;;;;;;;;;4909086;28;20417;-40
2022/08/31 00:07:48;;;;;;;38.93;32.53;;;;;;;;;;4913761;28;20374;-40
2022/08/31 00:10:17;;;;;;;41.77;34.27;;;;;;;;;;4914372;28;20179;-38
2022/08/31 00:12:47;;;;;;;43.60;34.90;;;;;;;;;;4912881;28;20976;-40
2022/08/31 00:15:15;;;;;;;40.83;34.80;;;;;;;;;;4915454;28;20674;-39
2022/08/31 00:17:42;;;;;;;45.70;36.57;;;;;;;;;;4908558;28;20168;-41
2022/08/31 00:20:09;;;;;;;40.77;33.17;;;;;;;;;;4913034;28;20211;-40
2022/08/31 00:22:35;;;;;;;38.20;33.00;;;;;;;;;;4915664;28;20206;-41
2022/08/31 00:25:01;;;;;;;42.13;34.03;;;;;;;;;;4916306;28;20199;-39
2022/08/31 00:27:27;;;;;;;41.67;35.60;;;;;;;;;;4913897;28;20534;-40
2022/08/31 00:29:53;;;;;;;49.80;37.80;;;;;;;;;;4914673;28;20266;-40
2022/08/31 00:32:20;;;;;;;50.13;41.03;;;;;;;;;;4912681;28;20489;-40
2022/08/31 00:34:46;;;;;;;48.13;37.93;;;;;;;;;;4912336;28;20618;-40
2022/08/31 00:37:12;;;;;;;49.47;39.67;;;;;;;;;;4910822;28;20465;-40
2022/08/31 00:39:38;;;;;;;53.27;40.97;;;;;;;;;;4915093;28;20183;-40
2022/08/31 00:42:07;;;;;;;44.77;36.27;;;;;;;;;;4916056;28;20267;-40
2022/08/31 00:44:33;;;;;;;52.17;40.87;;;;;;;;;;4913554;28;20717;-41
2022/08/31 00:46:59;;;;;;;52.67;40.37;;;;;;;;;;4909635;28;20172;-41
2022/08/31 00:49:30;;;;;;;56.80;42.33;;;;;;;;;;4911028;28;20769;-41
2022/08/31 00:52:09;;;;;;;49.93;39.47;;;;;;;;;;4914994;28;20238;-40
2022/08/31 00:54:47;;;;;;;39.97;33.47;;;;;;;;;;4909045;28;20985;-43
2022/08/31 00:57:13;;;;;;;40.17;34.07;;;;;;;;;;4908225;28;20447;-42
2022/08/31 00:59:40;;;;;;;43.57;35.07;;;;;;;;;;4909682;28;20198;-43
2022/08/31 01:02:06;;;;;;;47.53;37.80;;;;;;;;;;4906634;28;20180;-43
2022/08/31 01:04:33;;;;;;;46.93;37.93;;;;;;;;;;4907690;28;20603;-42
2022/08/31 01:07:00;;;;;;;54.10;41.77;;;;;;;;;;4904842;28;20183;-43
2022/08/31 01:09:28;;;;;;;44.07;36.80;;;;;;;;;;4904435;28;20282;-42
2022/08/31 01:11:54;;;;;;;52.23;41.80;;;;;;;;;;4911148;28;20199;-43
2022/08/31 01:14:20;;;;;;;42.67;36.17;;;;;;;;;;4910598;28;20171;-43
2022/08/31 01:16:49;;;;;;;55.20;40.70;;;;;;;;;;4910061;28;20182;-42
2022/08/31 01:19:24;;;;;;;48.23;37.63;;;;;;;;;;4908497;28;20764;-42
2022/08/31 01:22:02;;;;;;;40.07;34.93;;;;;;;;;;4910501;28;20179;-43
2022/08/31 01:24:30;;;;;;;45.73;37.13;;;;;;;;;;4908788;28;20569;-43
2022/08/31 01:26:59;;;;;;;55.37;42.27;;;;;;;;;;4910475;28;20194;-42
2022/08/31 01:29:25;;;;;;;48.03;38.63;;;;;;;;;;4911373;28;20183;-43
2022/08/31 01:31:51;;;;;;;46.70;38.17;;;;;;;;;;4907688;28;20508;-43
2022/08/31 01:34:17;;;;;;;51.77;41.50;;;;;;;;;;4906011;28;20569;-43
2022/08/31 01:36:44;;;;;;;60.67;48.27;;;;;;;;;;4913773;28;21059;-43
2022/08/31 01:39:11;;;;;;;53.70;42.47;;;;;;;;;;4916592;28;20335;-43
2022/08/31 01:41:40;;;;;;;47.47;40.43;;;;;;;;;;4905408;28;20407;-43
2022/08/31 01:44:08;;;;;;;59.40;43.83;;;;;;;;;;4910333;28;20207;-43
2022/08/31 01:46:34;;;;;;;48.87;40.00;;;;;;;;;;4913181;28;20230;-43
2022/08/31 01:49:00;;;;;;;47.87;39.40;;;;;;;;;;4904995;28;20215;-43
2022/08/31 01:51:26;;;;;;;52.13;41.60;;;;;;;;;;4913528;28;20175;-41
2022/08/31 01:53:53;;;;;;;53.50;42.70;;;;;;;;;;4911080;28;21010;-43
2022/08/31 01:56:25;;;;;;;58.10;45.10;;;;;;;;;;4908528;28;20280;-43
2022/08/31 01:58:51;;;;;;;63.87;47.57;;;;;;;;;;4908935;28;20191;-41
2022/08/31 02:01:18;;;;;;;51.43;42.80;;;;;;;;;;4909389;28;20180;-42
2022/08/31 02:03:44;;;;;;;58.97;46.23;;;;;;;;;;4908249;28;20203;-43
2022/08/31 02:06:11;;;;;;;59.00;46.87;;;;;;;;;;4909421;28;20340;-42
2022/08/31 02:08:37;;;;;;;55.97;45.87;;;;;;;;;;4908624;28;20179;-42
2022/08/31 02:11:04;;;;;;;50.03;43.37;;;;;;;;;;4910771;28;20363;-43
2022/08/31 02:13:30;;;;;;;63.70;49.47;;;;;;;;;;4912499;28;20203;-42
2022/08/31 02:15:56;;;;;;;53.67;44.10;;;;;;;;;;4907678;28;20182;-42
2022/08/31 02:18:22;;;;;;;49.97;42.63;;;;;;;;;;4908766;28;20655;-43
2022/08/31 02:20:48;;;;;;;52.20;43.50;;;;;;;;;;4908604;28;20183;-42
2022/08/31 02:23:14;;;;;;;58.47;47.30;;;;;;;;;;4912285;28;20195;-42
2022/08/31 02:25:40;;;;;;;50.53;40.90;;;;;;;;;;4905879;28;21222;-42
2022/08/31 02:28:06;;;;;;;60.73;48.37;;;;;;;;;;4911410;28;20187;-43
2022/08/31 02:30:32;;;;;;;45.13;40.23;;;;;;;;;;4910032;28;20298;-42
2022/08/31 02:32:58;;;;;;;45.87;40.70;;;;;;;;;;4911094;28;20239;-42
2022/08/31 02:35:25;;;;;;;46.20;40.90;;;;;;;;;;4910638;28;20279;-43
2022/08/31 02:37:51;;;;;;;53.73;44.50;;;;;;;;;;4909251;28;20179;-41
2022/08/31 02:40:17;;;;;;;57.20;46.77;;;;;;;;;;4908146;28;20176;-42
2022/08/31 02:42:43;;;;;;;50.10;43.17;;;;;;;;;;4907429;28;20274;-43
2022/08/31 02:45:09;;;;;;;60.90;48.57;;;;;;;;;;4911415;28;20180;-42
2022/08/31 02:47:35;;;;;;;51.43;44.83;;;;;;;;;;4915168;28;20183;-41
2022/08/31 02:50:03;;;;;;;50.73;44.60;;;;;;;;;;4909499;28;20214;-41
2022/08/31 02:52:29;;;;;;;44.93;40.03;;;;;;;;;;4909071;28;20679;-41
2022/08/31 02:54:55;;;;;;;51.90;43.37;;;;;;;;;;4917100;28;20771;-42
2022/08/31 02:57:21;;;;;;;56.17;46.00;;;;;;;;;;4914249;28;20191;-41
2022/08/31 02:59:48;;;;;;;42.73;38.13;;;;;;;;;;4913284;28;21425;-41
2022/08/31 03:02:14;;;;;;;51.37;42.90;;;;;;;;;;4912703;28;20234;-40
2022/08/31 03:04:40;;;;;;;43.23;38.00;;;;;;;;;;4909966;28;20294;-41
2022/08/31 03:07:06;;;;;;;46.23;39.90;;;;;;;;;;4910705;28;20191;-42
2022/08/31 03:09:33;;;;;;;42.93;38.20;;;;;;;;;;4913533;28;20565;-42
2022/08/31 03:11:59;;;;;;;47.90;42.40;;;;;;;;;;4912340;28;20202;-42
2022/08/31 03:14:25;;;;;;;40.53;35.60;;;;;;;;;;4913091;28;20214;-41
2022/08/31 03:16:52;;;;;;;39.87;35.57;;;;;;;;;;4912660;28;20214;-42
2022/08/31 03:19:19;;;;;;;37.53;33.37;;;;;;;;;;4912490;28;20211;-41
2022/08/31 03:21:45;;;;;;;38.53;34.43;;;;;;;;;;4911119;28;20179;-41
2022/08/31 03:24:12;;;;;;;50.20;43.33;;;;;;;;;;4908568;28;20202;-41
2022/08/31 03:26:38;;;;;;;40.30;36.07;;;;;;;;;;4917328;28;20399;-41
2022/08/31 03:29:04;;;;;;;38.70;34.53;;;;;;;;;;4913251;28;20214;-41
2022/08/31 03:31:31;;;;;;;49.13;39.13;;;;;;;;;;4912520;28;20735;-41
2022/08/31 03:33:58;;;;;;;39.80;35.50;;;;;;;;;;4906137;28;20205;-42
2022/08/31 03:36:24;;;;;;;38.60;34.23;;;;;;;;;;4912146;28;20179;-41
2022/08/31 03:38:50;;;;;;;41.33;36.83;;;;;;;;;;4921048;28;21161;-41
2022/08/31 03:41:19;;;;;;;38.03;33.70;;;;;;;;;;4909117;28;20641;-40
2022/08/31 03:43:45;;;;;;;38.50;34.30;;;;;;;;;;4916498;28;20187;-41
2022/08/31 03:46:11;;;;;;;46.37;39.47;;;;;;;;;;4913492;28;20673;-41
2022/08/31 03:48:37;;;;;;;36.83;32.87;;;;;;;;;;4920466;28;20194;-41
2022/08/31 03:51:04;;;;;;;35.90;32.00;;;;;;;;;;4914704;28;20643;-41
2022/08/31 03:53:30;;;;;;;38.17;32.70;;;;;;;;;;4913446;28;21347;-41
2022/08/31 03:56:00;;;;;;;39.37;33.53;;;;;;;;;;4912636;28;20676;-40
2022/08/31 03:58:28;;;;;;;36.23;31.87;;;;;;;;;;4915039;28;20286;-41
2022/08/31 04:00:54;;;;;;;38.07;33.47;;;;;;;;;;4916100;28;20214;-41
2022/08/31 04:03:20;;;;;;;38.87;34.47;;;;;;;;;;4916618;28;20582;-42
2022/08/31 04:05:46;;;;;;;41.50;35.80;;;;;;;;;;4915631;28;20380;-41
2022/08/31 04:08:13;;;;;;;39.23;34.53;;;;;;;;;;4913068;28;20480;-41
2022/08/31 04:10:40;;;;;;;55.00;42.80;;;;;;;;;;4910584;28;20439;-41
2022/08/31 04:13:07;;;;;;;59.83;42.90;;;;;;;;;;4914433;28;20278;-39
2022/08/31 04:15:35;;;;;;;49.53;38.77;;;;;;;;;;4917675;28;20576;-41
2022/08/31 04:18:01;;;;;;;44.03;37.20;;;;;;;;;;4919206;28;20191;-39
2022/08/31 04:20:27;;;;;;;42.50;36.70;;;;;;;;;;4913468;28;20179;-41
2022/08/31 04:22:53;;;;;;;64.20;45.97;;;;;;;;;;4913611;28;20171;-41
2022/08/31 04:25:19;;;;;;;60.87;47.53;;;;;;;;;;4918466;28;20183;-41
2022/08/31 04:27:46;;;;;;;60.60;46.60;;;;;;;;;;4917230;28;20195;-40
2022/08/31 04:30:12;;;;;;;48.37;39.40;;;;;;;;;;4916595;28;20305;-41
2022/08/31 04:32:39;;;;;;;44.17;37.23;;;;;;;;;;4916825;28;20667;-41
2022/08/31 04:35:05;;;;;;;45.33;38.77;;;;;;;;;;4916410;28;20172;-41
2022/08/31 04:37:31;;;;;;;57.17;45.93;;;;;;;;;;4913075;28;20385;-41
2022/08/31 04:39:58;;;;;;;53.90;45.17;;;;;;;;;;4915095;28;20176;-41
2022/08/31 04:42:24;;;;;;;66.90;50.93;;;;;;;;;;4929815;28;20324;-40
2022/08/31 04:44:50;;;;;;;52.57;43.83;;;;;;;;;;4916690;28;20857;-41
2022/08/31 04:47:16;;;;;;;57.03;45.20;;;;;;;;;;4917632;28;20469;-41
2022/08/31 04:49:42;;;;;;;59.57;45.90;;;;;;;;;;4914785;28;20187;-41
2022/08/31 04:52:08;;;;;;;57.60;46.83;;;;;;;;;;4913381;28;20670;-41
2022/08/31 04:54:35;;;;;;;61.90;47.57;;;;;;;;;;4914376;28;20183;-41
2022/08/31 04:57:01;;;;;;;63.67;48.20;;;;;;;;;;4916286;28;21037;-42
2022/08/31 04:59:27;;;;;;;51.97;44.27;;;;;;;;;;4911636;28;20250;-42
2022/08/31 05:01:54;;;;;;;56.37;46.67;;;;;;;;;;4913035;28;20508;-43
2022/08/31 05:04:23;;;;;;;47.87;41.97;;;;;;;;;;4912932;28;20184;-41
2022/08/31 05:06:49;;;;;;;57.67;45.33;;;;;;;;;;4908424;28;20523;-41
2022/08/31 05:09:17;;;;;;;58.70;46.63;;;;;;;;;;4909153;28;20414;-42
2022/08/31 05:11:43;;;;;;;49.43;41.33;;;;;;;;;;4913487;28;20898;-42
2022/08/31 05:14:09;;;;;;;50.13;42.10;;;;;;;;;;4915680;28;20487;-42
2022/08/31 05:16:37;;;;;;;49.03;41.17;;;;;;;;;;4912835;28;20215;-41
2022/08/31 05:19:04;;;;;;;49.40;41.30;;;;;;;;;;4911336;28;20175;-41
2022/08/31 05:21:31;;;;;;;47.23;39.67;;;;;;;;;;4911216;28;20250;-42
2022/08/31 05:23:57;;;;;;;45.13;38.13;;;;;;;;;;4905398;28;20455;-41
2022/08/31 05:26:26;;;;;;;48.13;38.97;;;;;;;;;;4914001;28;20175;-42
2022/08/31 05:28:53;;;;;;;47.53;37.97;;;;;;;;;;4914627;28;20183;-41
2022/08/31 05:31:19;;;;;;;47.07;38.63;;;;;;;;;;4917042;28;20182;-42
2022/08/31 05:33:46;;;;;;;44.03;38.10;;;;;;;;;;4906127;28;20937;-41
2022/08/31 05:36:12;;;;;;;45.83;37.20;;;;;;;;;;4905443;28;21283;-42
2022/08/31 05:38:39;;;;;;;47.60;35.43;;;;;;;;;;4908840;28;20628;-41
2022/08/31 05:41:05;;;;;;;45.43;35.70;;;;;;;;;;4909863;28;20467;-40
2022/08/31 05:43:32;;;;;;;43.77;35.83;;;;;;;;;;4903422;28;20647;-40
2022/08/31 05:45:58;;;;;;;45.53;38.20;;;;;;;;;;4907858;28;20175;-42
2022/08/31 05:48:26;;;;;;;44.93;36.00;;;;;;;;;;4909907;28;20190;-42
2022/08/31 05:50:53;;;;;;;39.93;35.47;;;;;;;;;;4906364;28;20180;-42
2022/08/31 05:53:19;;;;;;;47.87;37.93;;;;;;;;;;4907177;28;20931;-42
2022/08/31 05:55:46;;;;;;;47.97;38.50;;;;;;;;;;4919138;28;20582;-42
2022/08/31 05:58:12;;;;;;;47.73;39.50;;;;;;;;;;4909561;28;20179;-41
2022/08/31 06:00:39;;;;;;;46.67;39.63;;;;;;;;;;4910149;28;20526;-40
2022/08/31 06:03:05;;;;;;;48.80;39.97;;;;;;;;;;4908193;28;20250;-42
2022/08/31 06:05:31;;;;;;;47.83;39.23;;;;;;;;;;4904253;28;20382;-39
2022/08/31 06:07:57;;;;;;;50.80;40.50;;;;;;;;;;4905923;28;20739;-42
2022/08/31 06:10:24;;;;;;;46.47;39.33;;;;;;;;;;4906975;28;20589;-41
2022/08/31 06:12:50;;;;;;;50.27;39.10;;;;;;;;;;4908747;28;20323;-42
2022/08/31 06:15:17;;;;;;;52.43;41.50;;;;;;;;;;4907129;28;21047;-41
2022/08/31 06:17:43;;;;;;;53.57;41.60;;;;;;;;;;4906050;28;20618;-40
2022/08/31 06:20:10;;;;;;;44.57;38.27;;;;;;;;;;4904619;28;20560;-41
2022/08/31 06:22:36;;;;;;;53.27;40.87;;;;;;;;;;4910258;28;21254;-42
2022/08/31 06:25:05;;;;;;;50.93;39.17;;;;;;;;;;4909211;28;20198;-42
2022/08/31 06:27:32;;;;;;;50.40;39.67;;;;;;;;;;4906654;28;20191;-42
2022/08/31 06:30:00;;;;;;;50.30;39.20;;;;;;;;;;4906623;28;20196;-42
2022/08/31 06:32:27;;;;;;;50.63;38.77;;;;;;;;;;4906037;28;20318;-42
2022/08/31 06:34:53;;;;;;;41.53;35.20;;;;;;;;;;4902610;28;20901;-41
2022/08/31 06:37:19;;;;;;;52.07;39.80;;;;;;;;;;4905576;28;20194;-41
2022/08/31 06:39:45;;;;;;;57.17;40.10;;;;;;;;;;4907404;28;20183;-42
2022/08/31 06:42:11;;;;;;;42.90;34.27;;;;;;;;;;4921146;28;20184;-42
2022/08/31 06:44:37;;;;;;;41.73;32.70;;;;;;;;;;4905478;28;20794;-41
2022/08/31 06:47:03;;;;;;;34.23;27.97;;;;;;;;;;4906561;28;20184;-42
2022/08/31 06:49:30;;;;;;;38.00;29.30;;;;;;;;;;4908235;28;20187;-41
2022/08/31 06:51:59;;;;;;;37.67;28.07;;;;;;;;;;4907121;28;20343;-42
2022/08/31 06:54:25;;;;;;;34.80;25.83;;;;;;;;;;4904958;28;21048;-40
2022/08/31 06:56:51;;;;;;;27.63;23.17;;;;;;;;;;4899616;28;20306;-42
2022/08/31 06:59:17;;;;;;;29.07;24.63;;;;;;;;;;4899028;28;20742;-42
2022/08/31 07:01:43;;;;;;;28.73;23.60;;;;;;;;;;4904653;28;20495;-43
2022/08/31 07:04:10;;;;;;;26.70;23.47;;;;;;;;;;4904673;28;20704;-42
2022/08/31 07:06:38;;;;;;;26.43;21.33;;;;;;;;;;4905481;28;20180;-41
2022/08/31 07:09:05;;;;;;;31.67;23.47;;;;;;;;;;4906459;28;20672;-42
2022/08/31 07:11:34;;;;;;;24.33;21.27;;;;;;;;;;4905235;28;20243;-42
2022/08/31 07:14:03;;;;;;;23.53;20.73;;;;;;;;;;4905103;28;20579;-41
2022/08/31 07:16:29;;;;;;;26.30;21.20;;;;;;;;;;4904094;28;20184;-42
2022/08/31 07:18:58;;;;;;;23.10;20.50;;;;;;;;;;4906319;28;20286;-42
2022/08/31 07:21:25;;;;;;;24.30;19.93;;;;;;;;;;4908109;28;20578;-41
2022/08/31 07:23:52;;;;;;;24.83;21.37;;;;;;;;;;4904887;28;20337;-42
2022/08/31 07:26:21;;;;;;;32.80;22.90;;;;;;;;;;4906627;28;20617;-42
2022/08/31 07:28:51;;;;;;;23.90;20.73;;;;;;;;;;4901467;28;20190;-42
2022/08/31 07:31:18;;;;;;;26.07;22.07;;;;;;;;;;4902316;28;21013;-41
2022/08/31 07:33:45;;;;;;;24.63;20.57;;;;;;;;;;4905633;28;20219;-42
2022/08/31 07:36:12;;;;;;;22.57;19.90;;;;;;;;;;4906561;28;20581;-42
2022/08/31 07:42:08;;;;;;;24.43;20.63;;;;;;;;;;4901167;28;20640;-42
2022/08/31 07:44:20;;;;;;;23.63;20.00;;;;;;;;;;4905202;28;20696;-42
2022/08/31 07:46:46;;;;;;;28.80;22.47;;;;;;;;;;4904131;28;20755;-40
2022/08/31 07:49:13;;;;;;;26.40;22.10;;;;;;;;;;4904163;28;20230;-42
2022/08/31 07:51:42;;;;;;;25.73;22.30;;;;;;;;;;4903316;28;20413;-42
2022/08/31 07:54:09;;;;;;;23.20;20.60;;;;;;;;;;4905989;28;20766;-42
2022/08/31 07:56:37;;;;;;;22.70;20.30;;;;;;;;;;4903213;28;20179;-42
2022/08/31 07:59:06;;;;;;;28.23;22.47;;;;;;;;;;4901797;28;21180;-42
2022/08/31 08:01:36;;;;;;;28.53;21.77;;;;;;;;;;4899275;28;20175;-42
2022/08/31 08:04:02;;;;;;;28.90;23.97;;;;;;;;;;4906283;28;20274;-42
2022/08/31 08:06:29;;;;;;;23.73;21.13;;;;;;;;;;4910877;28;20303;-42
2022/08/31 08:09:05;;;;;;;28.87;24.87;;;;;;;;;;4909737;28;20179;-42
2022/08/31 08:11:32;;;;;;;27.73;24.70;;;;;;;;;;4904469;28;20187;-42
2022/08/31 08:13:58;;;;;;;27.77;24.27;;;;;;;;;;4907137;28;20180;-42
2022/08/31 08:16:25;;;;;;;32.47;25.00;;;;;;;;;;4903767;28;20762;-42
2022/08/31 08:18:51;;;;;;;27.30;22.93;;;;;;;;;;4904997;28;20184;-42
2022/08/31 08:21:17;;;;;;;27.10;23.90;;;;;;;;;;4902305;28;20191;-42
2022/08/31 08:23:43;;;;;;;29.77;26.57;;;;;;;;;;4903478;28;20517;-42
2022/08/31 08:26:10;;;;;;;27.97;24.10;;;;;;;;;;4902910;28;20723;-43
2022/08/31 08:28:36;;;;;;;26.60;23.80;;;;;;;;;;4906057;28;20213;-43
2022/08/31 08:31:02;;;;;;;27.20;24.30;;;;;;;;;;4907452;28;20869;-41
2022/08/31 08:33:29;;;;;;;31.87;24.93;;;;;;;;;;4905914;28;20249;-42
2022/08/31 08:36:02;;;;;;;25.93;23.17;;;;;;;;;;4908236;28;20282;-42
2022/08/31 08:38:31;;;;;;;29.57;24.70;;;;;;;;;;4909686;28;20199;-42
2022/08/31 08:40:58;;;;;;;26.23;23.40;;;;;;;;;;4905222;28;20586;-43
2022/08/31 08:43:29;;;;;;;27.03;24.13;;;;;;;;;;4913565;28;20533;-41
2022/08/31 08:45:56;;;;;;;30.50;25.57;;;;;;;;;;4922221;28;20187;-42
2022/08/31 08:48:25;;;;;;;23.63;21.23;;;;;;;;;;4928095;28;20223;-43
2022/08/31 08:50:52;;;;;;;27.67;24.23;;;;;;;;;;4916869;28;20184;-43
2022/08/31 08:53:20;;;;;;;26.80;24.00;;;;;;;;;;4917326;28;20265;-41
2022/08/31 08:55:47;;;;;;;24.17;21.67;;;;;;;;;;4918865;28;20171;-42
2022/08/31 08:58:18;;;;;;;26.00;22.27;;;;;;;;;;4916929;28;20568;-41
2022/08/31 09:00:47;;;;;;;25.67;22.97;;;;;;;;;;4915788;28;20214;-42
2022/08/31 09:03:22;;;;;;;26.07;23.27;;;;;;;;;;4919675;28;20364;-42
2022/08/31 09:05:51;;;;;;;25.37;22.23;;;;;;;;;;4932296;28;20254;-42
2022/08/31 09:08:27;;;;;;;24.70;21.90;;;;;;;;;;4914146;28;20220;-43
2022/08/31 09:10:56;;;;;;;24.57;21.60;;;;;;;;;;4916650;28;20275;-44
2022/08/31 09:13:42;;;;;;;25.07;22.47;;;;;;;;;;4917516;28;21046;-43
2022/08/31 09:16:08;;;;;;;24.50;21.90;;;;;;;;;;4913025;28;20562;-43
2022/08/31 09:18:52;;;;;;;23.93;21.43;;;;;;;;;;4911767;28;20171;-43
2022/08/31 09:21:21;;;;;;;25.73;21.33;;;;;;;;;;4913145;28;20555;-43
2022/08/31 09:23:52;;;;;;;25.40;20.80;;;;;;;;;;4914675;28;20227;-42
2022/08/31 09:26:19;;;;;;;23.40;20.73;;;;;;;;;;4911806;28;20751;-43
2022/08/31 09:28:47;;;;;;;23.47;21.03;;;;;;;;;;4912332;28;20824;-43
2022/08/31 09:31:33;;;;;;;23.87;21.53;;;;;;;;;;4912809;28;20184;-43
2022/08/31 09:34:00;;;;;;;21.30;19.10;;;;;;;;;;4916901;28;20215;-43
2022/08/31 09:36:32;;;;;;;20.90;18.80;;;;;;;;;;4914589;28;20183;-43
2022/08/31 09:39:12;;;;;;;17.80;15.90;;;;;;;;;;4912969;28;20179;-43
2022/08/31 09:41:38;;;;;;;19.53;17.40;;;;;;;;;;4914181;28;20183;-44
2022/08/31 09:44:20;;;;;;;15.53;13.43;;;;;;;;;;4918345;28;20180;-43
2022/08/31 09:46:52;;;;;;;16.83;12.93;;;;;;;;;;4916800;28;20350;-43
2022/08/31 09:49:22;;;;;;;13.30;12.00;;;;;;;;;;4917050;28;20338;-43
2022/08/31 09:51:48;;;;;;;13.80;12.43;;;;;;;;;;4914882;28;20176;-42
2022/08/31 09:57:01;;;;;;;13.73;9.73;;;;;;;;;;4917470;28;20750;-43
2022/08/31 09:59:38;;;;;;;11.83;10.40;;;;;;;;;;4918470;28;20242;-42
2022/08/31 10:02:10;;;;;;;11.07;9.87;;;;;;;;;;4915649;28;20407;-43
2022/08/31 10:04:46;;;;;;;11.20;9.40;;;;;;;;;;4916173;28;20179;-42
2022/08/31 10:07:23;;;;;;;10.33;9.07;;;;;;;;;;4914654;28;20604;-42
2022/08/31 10:09:55;;;;;;;9.33;8.40;;;;;;;;;;4914863;28;20739;-43
2022/08/31 10:12:24;;;;;;;10.97;8.77;;;;;;;;;;4931263;28;20541;-42
2022/08/31 10:14:52;;;;;;;9.80;8.47;;;;;;;;;;4914350;28;20610;-43
2022/08/31 10:17:29;;;;;;;10.40;7.60;;;;;;;;;;4914945;28;20938;-43
2022/08/31 10:20:04;;;;;;;9.83;8.90;;;;;;;;;;4914206;28;20180;-43
2022/08/31 10:22:49;;;;;;;9.40;8.50;;;;;;;;;;4917641;28;20457;-43
2022/08/31 10:25:17;;;;;;;9.87;8.83;;;;;;;;;;4914189;28;20599;-43
2022/08/31 10:27:48;;;;;;;8.93;8.13;;;;;;;;;;4925845;28;20196;-43
2022/08/31 10:30:20;;;;;;;9.00;8.07;;;;;;;;;;4915990;28;20766;-43
2022/08/31 10:32:49;;;;;;;10.93;8.70;;;;;;;;;;4919461;28;20795;-44
2022/08/31 10:35:18;;;;;;;9.67;8.67;;;;;;;;;;4918451;28;20183;-43
2022/08/31 10:37:49;;;;;;;10.30;8.97;;;;;;;;;;4915927;28;20202;-43
2022/08/31 10:40:17;;;;;;;10.40;8.80;;;;;;;;;;4913081;28;20168;-43
2022/08/31 10:42:56;;;;;;;10.00;8.30;;;;;;;;;;4914330;28;20184;-43
2022/08/31 10:45:24;;;;;;;9.10;8.20;;;;;;;;;;4916635;28;20301;-43
2022/08/31 10:47:52;;;;;;;10.63;8.33;;;;;;;;;;4916907;28;20428;-43
2022/08/31 10:50:27;;;;;;;8.87;7.97;;;;;;;;;;4912232;28;20186;-43
2022/08/31 10:53:01;;;;;;;11.23;8.80;;;;;;;;;;4914299;28;20466;-43
2022/08/31 10:55:36;;;;;;;11.23;9.43;;;;;;;;;;4913572;28;20704;-43
2022/08/31 10:58:16;;;;;;;11.43;8.23;;;;;;;;;;4917454;28;20631;-43
2022/08/31 11:00:48;;;;;;;12.87;10.73;;;;;;;;;;4911253;28;20756;-43
2022/08/31 11:03:25;;;;;;;13.63;9.83;;;;;;;;;;4913760;28;20198;-43
2022/08/31 11:06:00;;;;;;;9.93;8.93;;;;;;;;;;4913006;28;20246;-43
2022/08/31 11:08:48;;;;;;;9.97;7.87;;;;;;;;;;4912212;28;20250;-44
2022/08/31 11:11:24;;;;;;;11.07;9.47;;;;;;;;;;4916716;28;20234;-43
2022/08/31 11:14:02;;;;;;;9.90;8.60;;;;;;;;;;4916236;28;20812;-43
2022/08/31 11:16:31;;;;;;;10.37;8.47;;;;;;;;;;4914174;28;20179;-42
2022/08/31 11:19:09;;;;;;;9.33;8.40;;;;;;;;;;4913589;28;20180;-43
2022/08/31 11:21:53;;;;;;;8.67;7.87;;;;;;;;;;4915703;28;20415;-43
2022/08/31 11:24:27;;;;;;;9.90;8.67;;;;;;;;;;4914351;28;20201;-43
2022/08/31 11:27:19;;;;;;;8.53;7.63;;;;;;;;;;4912663;28;20254;-44
2022/08/31 11:29:58;;;;;;;8.97;7.60;;;;;;;;;;4915080;28;20198;-43
2022/08/31 11:32:38;;;;;;;9.40;8.40;;;;;;;;;;4916193;28;20486;-43
2022/08/31 11:35:09;;;;;;;7.90;7.20;;;;;;;;;;4907891;28;20739;-43
2022/08/31 11:38:02;;;;;;;9.77;8.77;;;;;;;;;;4912265;28;20482;-43
2022/08/31 11:40:40;;;;;;;10.30;9.20;;;;;;;;;;4911113;28;20274;-43
2022/08/31 11:43:07;;;;;;;8.60;7.80;;;;;;;;;;4913379;28;20205;-43
2022/08/31 11:45:36;;;;;;;8.70;7.77;;;;;;;;;;4913646;28;20187;-43
2022/08/31 11:48:04;;;;;;;9.90;7.63;;;;;;;;;;4914091;28;20488;-43
2022/08/31 11:50:36;;;;;;;7.27;6.67;;;;;;;;;;4912858;28;20814;-43
2022/08/31 11:53:30;;;;;;;9.87;7.80;;;;;;;;;;4910905;28;20242;-43
2022/08/31 11:56:02;;;;;;;9.13;7.40;;;;;;;;;;4927692;28;20183;-43
2022/08/31 11:58:37;;;;;;;7.77;6.93;;;;;;;;;;4914988;28;20408;-43
2022/08/31 12:01:08;;;;;;;10.83;8.03;;;;;;;;;;4913315;28;20469;-42
2022/08/31 12:03:41;;;;;;;8.00;6.83;;;;;;;;;;4911765;28;20195;-43
2022/08/31 12:06:09;;;;;;;11.20;9.40;;;;;;;;;;4917949;28;20299;-41
2022/08/31 12:08:50;;;;;;;8.43;7.53;;;;;;;;;;4920762;28;20718;-43
2022/08/31 12:11:35;;;;;;;9.73;8.10;;;;;;;;;;4918248;28;20710;-42
2022/08/31 12:14:16;;;;;;;9.70;8.70;;;;;;;;;;4914427;28;20565;-42
2022/08/31 12:17:08;;;;;;;9.67;7.80;;;;;;;;;;4914496;28;20700;-43
2022/08/31 12:19:57;;;;;;;9.07;8.10;;;;;;;;;;4918433;28;21140;-43
2022/08/31 12:25:22;;;;;;;10.23;7.80;;;;;;;;;;4919243;28;20839;-41
2022/08/31 12:28:01;;;;;;;8.67;7.10;;;;;;;;;;4920675;28;20592;-42
2022/08/31 12:30:28;;;;;;;9.07;8.17;;;;;;;;;;4919112;28;20194;-43
2022/08/31 12:33:12;;;;;;;8.27;7.47;;;;;;;;;;4917682;28;20310;-41
2022/08/31 12:35:38;;;;;;;9.47;7.63;;;;;;;;;;4918704;28;20254;-43
2022/08/31 12:38:06;;;;;;;9.13;8.13;;;;;;;;;;4915360;28;20616;-41
2022/08/31 12:40:34;;;;;;;7.87;6.70;;;;;;;;;;4918668;28;20279;-42
2022/08/31 12:43:00;;;;;;;9.03;7.90;;;;;;;;;;4917365;28;20497;-43
2022/08/31 12:45:47;;;;;;;9.10;7.60;;;;;;;;;;4914275;28;20459;-42
2022/08/31 12:48:31;;;;;;;7.00;6.03;;;;;;;;;;4934903;28;20621;-43
2022/08/31 12:51:20;;;;;;;6.57;5.97;;;;;;;;;;4915452;28;20399;-42
2022/08/31 12:53:46;;;;;;;7.83;7.10;;;;;;;;;;4914155;28;20207;-43
2022/08/31 12:56:15;;;;;;;8.93;7.20;;;;;;;;;;4914819;28;20627;-42
2022/08/31 12:58:57;;;;;;;19.53;7.73;;;;;;;;;;4918192;28;20860;-42
2022/08/31 13:01:23;;;;;;;9.80;5.77;;;;;;;;;;4919402;28;20195;-42
2022/08/31 13:03:52;;;;;;;5.87;5.23;;;;;;;;;;4918620;28;20300;-43
2022/08/31 13:06:29;;;;;;;7.03;6.17;;;;;;;;;;4915950;28;20491;-42
2022/08/31 13:08:57;;;;;;;9.73;6.20;;;;;;;;;;4916627;28;20742;-42
2022/08/31 13:11:25;;;;;;;8.50;6.00;;;;;;;;;;4920082;28;20395;-43
2022/08/31 13:13:52;;;;;;;6.13;5.40;;;;;;;;;;4918598;28;20298;-43
2022/08/31 13:16:19;;;;;;;6.37;5.77;;;;;;;;;;4914913;28;20597;-43
2022/08/31 13:18:45;;;;;;;8.17;5.97;;;;;;;;;;4919038;28;20176;-43
2022/08/31 13:21:12;;;;;;;7.30;5.40;;;;;;;;;;4921827;28;20207;-42
2022/08/31 13:23:40;;;;;;;18.80;6.00;;;;;;;;;;4919928;28;20434;-43
2022/08/31 13:26:18;;;;;;;7.63;6.93;;;;;;;;;;4915708;28;20223;-43
2022/08/31 13:28:55;;;;;;;10.73;6.90;;;;;;;;;;4918142;28;20621;-41
2022/08/31 13:31:23;;;;;;;9.13;5.87;;;;;;;;;;4920042;28;20718;-42
2022/08/31 13:33:50;;;;;;;7.63;6.33;;;;;;;;;;4920657;28;20535;-43
2022/08/31 13:36:30;;;;;;;7.40;5.87;;;;;;;;;;4916378;28;20724;-42
2022/08/31 13:38:57;;;;;;;8.73;6.50;;;;;;;;;;4915007;28;20189;-42
2022/08/31 13:41:25;;;;;;;7.53;5.97;;;;;;;;;;4918942;28;20281;-42
2022/08/31 13:44:00;;;;;;;8.37;6.07;;;;;;;;;;4919716;28;20267;-42
2022/08/31 13:46:33;;;;;;;11.40;6.83;;;;;;;;;;4916579;28;20262;-43
2022/08/31 13:49:00;;;;;;;9.37;7.13;;;;;;;;;;4915794;28;20732;-42
2022/08/31 13:51:33;;;;;;;9.20;5.50;;;;;;;;;;4917041;28;20742;-43
2022/08/31 13:53:59;;;;;;;8.60;6.00;;;;;;;;;;4918978;28;20796;-43
2022/08/31 13:59:22;;;;;;;6.87;6.17;;;;;;;;;;4914498;28;20666;-43
2022/08/31 14:01:49;;;;;;;8.03;6.43;;;;;;;;;;4918028;28;20218;-43
2022/08/31 14:04:43;;;;;;;7.10;5.60;;;;;;;;;;4917766;28;20299;-42
2022/08/31 14:07:22;;;;;;;15.10;5.90;;;;;;;;;;4916911;28;20613;-43
2022/08/31 14:09:59;;;;;;;8.10;6.33;;;;;;;;;;4915709;28;20175;-43
2022/08/31 14:12:34;;;;;;;6.53;5.90;;;;;;;;;;4917828;28;20203;-42
2022/08/31 14:15:07;;;;;;;7.57;5.40;;;;;;;;;;4918453;28;20698;-43
2022/08/31 14:17:35;;;;;;;7.80;5.97;;;;;;;;;;4918212;28;20183;-42
2022/08/31 14:20:21;;;;;;;5.40;4.90;;;;;;;;;;4916565;28;20187;-42
2022/08/31 14:22:48;;;;;;;5.17;4.60;;;;;;;;;;4921058;28;20192;-41
2022/08/31 14:25:18;;;;;;;6.37;5.20;;;;;;;;;;4915976;28;20187;-43
2022/08/31 14:27:44;;;;;;;6.60;5.70;;;;;;;;;;4916424;28;20650;-42
2022/08/31 14:30:12;;;;;;;6.43;5.10;;;;;;;;;;4915372;28;20280;-43
2022/08/31 14:32:42;;;;;;;7.03;4.90;;;;;;;;;;4914031;28;20199;-41
2022/08/31 14:35:09;;;;;;;5.37;4.63;;;;;;;;;;4915167;28;20179;-43
2022/08/31 14:37:36;;;;;;;6.53;5.47;;;;;;;;;;4916634;28;20258;-43
2022/08/31 14:40:03;;;;;;;7.93;5.10;;;;;;;;;;4914205;28;20188;-43
2022/08/31 14:42:33;;;;;;;8.60;5.13;;;;;;;;;;4912340;28;20605;-43
2022/08/31 14:45:02;;;;;;;6.53;4.67;;;;;;;;;;4913922;28;20266;-43
2022/08/31 14:47:41;;;;;;;5.90;4.83;;;;;;;;;;4917638;28;20609;-43
2022/08/31 14:50:07;;;;;;;7.23;4.20;;;;;;;;;;4915078;28;20447;-42
2022/08/31 14:52:41;;;;;;;5.73;5.10;;;;;;;;;;4911633;28;20212;-43